Time;durP1;ratioP1;P1;durP2;ratioP2;P2;SDS_P1;SDS_P2;PMS_P1;PMS_P2;Temp;Humidity;BMP_temperature;BMP_pressure;BME280_temperature;BME280_humidity;BME280_pressure;Samples;Min_cycle;Max_cycle;Signal;HPM_P1;HPM_P2
2022/02/14 00:00:14;;;;;;;48.73;26.23;;;;;;;-4.37;100.00;101094.91;1741347;82;21021;-75
2022/02/14 00:02:40;;;;;;;52.97;27.13;;;;;;;-4.36;100.00;101078.13;1741545;82;21018;-75
2022/02/14 00:05:14;;;;;;;56.87;26.40;;;;;;;-4.34;100.00;101052.99;1741221;82;21037;-76
2022/02/14 00:07:41;;;;;;;43.17;24.03;;;;;;;-4.35;100.00;101041.58;1741569;82;21025;-74
2022/02/14 00:10:10;;;;;;;45.47;23.40;;;;;;;-4.36;100.00;101020.03;1750782;81;20964;-76
2022/02/14 00:12:41;;;;;;;43.37;24.07;;;;;;;-4.38;100.00;101011.30;1766302;81;21070;-75
2022/02/14 00:15:12;;;;;;;49.67;24.93;;;;;;;-4.40;100.00;101013.14;1763173;81;21043;-75
2022/02/14 00:17:40;;;;;;;43.97;22.67;;;;;;;-4.42;100.00;101018.94;1766409;81;21041;-75
2022/02/14 00:20:09;;;;;;;45.53;21.90;;;;;;;-4.42;100.00;101017.62;1709504;81;21079;-76
2022/02/14 00:22:37;;;;;;;49.67;24.63;;;;;;;-4.44;100.00;101016.34;1709484;84;21036;-76
2022/02/14 00:25:06;;;;;;;64.93;31.07;;;;;;;-4.45;100.00;101013.28;1709341;84;21043;-75
2022/02/14 00:27:41;;;;;;;57.10;29.27;;;;;;;-4.49;100.00;100965.94;1709390;83;21071;-75
2022/02/14 00:30:08;;;;;;;89.07;43.37;;;;;;;-4.52;100.00;100958.97;1709491;84;21067;-74
2022/02/14 00:32:37;;;;;;;98.63;45.77;;;;;;;-4.55;100.00;100970.98;1709295;84;21059;-75
2022/02/14 00:35:04;;;;;;;106.27;47.77;;;;;;;-4.56;100.00;100986.39;1679686;84;21169;-75
2022/02/14 00:37:31;;;;;;;121.33;52.20;;;;;;;-4.59;100.00;100991.77;1709302;84;21043;-74
2022/02/14 00:39:58;;;;;;;110.47;47.73;;;;;;;-4.62;100.00;100998.46;1709384;84;21004;-76
2022/02/14 00:42:25;;;;;;;88.73;42.20;;;;;;;-4.63;100.00;100996.75;1709292;84;21501;-76
2022/02/14 00:44:52;;;;;;;75.60;37.37;;;;;;;-4.63;100.00;101016.55;1709495;84;21067;-75
2022/02/14 00:47:19;;;;;;;55.73;27.33;;;;;;;-4.65;100.00;101013.10;1709164;84;21063;-75
2022/02/14 00:49:46;;;;;;;58.50;27.27;;;;;;;-4.68;100.00;101025.92;1709263;84;21051;-75
2022/02/14 00:52:13;;;;;;;50.83;23.87;;;;;;;-4.70;100.00;101025.11;1709126;84;21027;-76
2022/02/14 00:54:40;;;;;;;57.37;26.63;;;;;;;-4.71;100.00;101033.97;1709387;84;21067;-75
2022/02/14 00:57:06;;;;;;;52.27;25.37;;;;;;;-4.73;100.00;101036.23;1708673;84;21103;-75
2022/02/14 00:59:34;;;;;;;46.07;20.47;;;;;;;-4.75;100.00;101044.19;1709371;84;21008;-76
2022/02/14 01:02:01;;;;;;;38.50;19.93;;;;;;;-4.78;100.00;101048.23;1709280;84;21000;-75
2022/02/14 01:04:27;;;;;;;38.27;18.03;;;;;;;-4.80;100.00;101054.91;1709579;84;21051;-76
2022/02/14 01:06:54;;;;;;;42.73;21.10;;;;;;;-4.82;100.00;101055.39;1710412;84;21095;-76
2022/02/14 01:09:21;;;;;;;39.43;20.10;;;;;;;-4.82;100.00;101055.85;1711055;84;21513;-76
2022/02/14 01:11:48;;;;;;;39.20;20.17;;;;;;;-4.82;100.00;101055.39;1709817;84;21024;-74
2022/02/14 01:14:15;;;;;;;38.10;20.53;;;;;;;-4.84;100.00;101056.36;1709284;84;21000;-74
2022/02/14 01:16:43;;;;;;;33.90;17.10;;;;;;;-4.85;100.00;101052.87;1708715;84;21110;-74
2022/02/14 01:19:10;;;;;;;32.90;16.97;;;;;;;-4.86;100.00;101062.15;1708929;84;21055;-75
2022/02/14 01:21:37;;;;;;;35.30;17.73;;;;;;;-4.88;100.00;101063.52;1709015;84;21043;-75
2022/02/14 01:24:04;;;;;;;32.30;17.70;;;;;;;-4.89;100.00;101069.69;1709338;84;21361;-75
2022/02/14 01:26:31;;;;;;;35.40;17.80;;;;;;;-4.87;100.00;101065.69;1709116;84;21064;-74
2022/02/14 01:28:58;;;;;;;33.37;17.30;;;;;;;-4.89;100.00;101066.19;1709097;84;21000;-74
2022/02/14 01:31:25;;;;;;;34.00;18.87;;;;;;;-4.87;100.00;101065.69;1709045;84;21063;-75
2022/02/14 01:33:59;;;;;;;34.13;18.00;;;;;;;-4.89;100.00;101068.83;1709438;84;21044;-76
2022/02/14 01:36:26;;;;;;;33.30;18.50;;;;;;;-4.90;100.00;101060.52;1709038;84;21027;-74
2022/02/14 01:38:53;;;;;;;32.20;17.70;;;;;;;-4.89;100.00;101064.41;1709132;84;20988;-75
2022/02/14 01:41:20;;;;;;;34.57;19.60;;;;;;;-4.92;100.00;101067.16;1708769;84;21020;-75
2022/02/14 01:43:53;;;;;;;40.10;23.17;;;;;;;-4.93;100.00;101070.70;1709165;84;21477;-75
2022/02/14 01:46:22;;;;;;;36.47;21.60;;;;;;;-4.92;100.00;101062.32;1708603;84;21071;-75
2022/02/14 01:48:49;;;;;;;35.27;21.93;;;;;;;-4.90;100.00;101056.56;1709588;84;20980;-75
2022/02/14 01:51:16;;;;;;;36.23;22.23;;;;;;;-4.90;100.00;101048.66;1709023;84;21032;-76
2022/02/14 01:53:43;;;;;;;33.13;18.77;;;;;;;-4.92;100.00;101050.02;1708829;84;21043;-76
2022/02/14 01:56:12;;;;;;;31.20;16.27;;;;;;;-4.93;100.00;101043.46;1708742;84;21083;-77
2022/02/14 01:58:41;;;;;;;33.10;18.17;;;;;;;-4.92;100.00;101042.53;1709163;84;21063;-75
2022/02/14 02:01:08;;;;;;;36.63;18.90;;;;;;;-4.92;100.00;101034.62;1709293;84;21040;-75
2022/02/14 02:03:35;;;;;;;27.97;14.83;;;;;;;-4.90;100.00;101035.46;1709153;84;21035;-75
2022/02/14 02:06:02;;;;;;;28.83;15.57;;;;;;;-4.88;100.00;101029.21;1708939;84;21063;-75
2022/02/14 02:08:29;;;;;;;27.20;14.07;;;;;;;-4.86;100.00;101019.93;1708776;84;21070;-76
2022/02/14 02:12:22;;;;;;;22.67;11.33;;;;;;;-4.84;100.00;101010.19;1708741;84;21119;-75
2022/02/14 02:13:24;;;;;;;23.17;12.00;;;;;;;-4.82;100.00;101008.36;1704602;84;21035;-74
2022/02/14 02:15:51;;;;;;;21.97;10.40;;;;;;;-4.80;100.00;100998.61;1709063;84;21561;-75
2022/02/14 02:18:17;;;;;;;24.27;12.03;;;;;;;-4.80;100.00;100990.70;1708976;84;21044;-74
2022/02/14 02:20:44;;;;;;;24.77;13.10;;;;;;;-4.80;100.00;100988.94;1709018;84;21051;-75
2022/02/14 02:23:11;;;;;;;22.90;12.00;;;;;;;-4.80;100.00;100970.47;1709121;84;21063;-75
2022/02/14 02:25:37;;;;;;;23.53;11.30;;;;;;;-4.80;100.00;100966.95;1709167;84;21068;-74
2022/02/14 02:28:04;;;;;;;24.70;11.70;;;;;;;-4.79;100.00;100958.98;1709175;84;21078;-74
2022/02/14 02:30:31;;;;;;;42.37;18.40;;;;;;;-4.77;100.00;100947.06;1709165;84;21039;-75
2022/02/14 02:32:58;;;;;;;45.70;20.40;;;;;;;-4.75;100.00;100943.91;1708755;84;21051;-75
2022/02/14 02:35:25;;;;;;;78.13;33.83;;;;;;;-4.72;100.00;100942.50;1709185;84;21052;-75
2022/02/14 02:37:52;;;;;;;64.30;27.93;;;;;;;-4.70;100.00;100929.26;1709036;84;21047;-75
2022/02/14 02:40:18;;;;;;;53.67;23.47;;;;;;;-4.67;100.00;100928.69;1709454;84;21028;-75
2022/02/14 02:42:45;;;;;;;57.73;25.23;;;;;;;-4.65;100.00;100920.27;1709536;84;21520;-75
2022/02/14 02:45:13;;;;;;;63.33;26.47;;;;;;;-4.65;100.00;100917.63;1709236;84;21134;-75
2022/02/14 02:47:41;;;;;;;74.17;26.43;;;;;;;-4.65;100.00;100900.94;1709270;84;21039;-76
2022/02/14 02:50:17;;;;;;;86.80;35.00;;;;;;;-4.64;100.00;100895.61;1708980;84;21103;-76
2022/02/14 02:52:43;;;;;;;107.87;38.47;;;;;;;-4.64;100.00;100876.25;1709260;84;20984;-76
2022/02/14 02:55:10;;;;;;;83.87;31.60;;;;;;;-4.63;100.00;100868.75;1709186;84;21043;-75
2022/02/14 02:57:38;;;;;;;72.30;29.97;;;;;;;-4.63;100.00;100852.45;1679466;84;21035;-75
2022/02/14 03:00:07;;;;;;;68.97;29.33;;;;;;;-4.65;100.00;100850.32;1709419;84;21039;-75
2022/02/14 03:02:34;;;;;;;61.70;25.57;;;;;;;-4.66;100.00;100849.05;1709433;84;21000;-75
2022/02/14 03:05:01;;;;;;;56.00;22.87;;;;;;;-4.70;100.00;100851.41;1709398;84;21541;-75
2022/02/14 03:07:28;;;;;;;44.77;19.73;;;;;;;-4.77;100.00;100859.98;1709168;84;21007;-75
2022/02/14 03:09:57;;;;;;;35.37;17.57;;;;;;;-4.85;100.00;100867.30;1724179;81;21008;-75
2022/02/14 03:12:24;;;;;;;40.30;17.63;;;;;;;-4.90;100.00;100867.94;1761008;81;21043;-75
2022/02/14 03:14:51;;;;;;;37.17;16.67;;;;;;;-4.94;100.00;100870.25;1760808;81;21000;-75
2022/02/14 03:17:18;;;;;;;37.43;16.23;;;;;;;-4.97;100.00;100873.88;1761024;81;21008;-75
2022/02/14 03:19:45;;;;;;;43.60;19.17;;;;;;;-5.01;100.00;100875.75;1744016;81;21507;-75
2022/02/14 03:22:12;;;;;;;53.47;22.03;;;;;;;-5.05;100.00;100874.58;1741218;82;21002;-75
2022/02/14 03:24:39;;;;;;;52.10;21.80;;;;;;;-5.10;100.00;100873.86;1741078;82;21054;-75
2022/02/14 03:27:06;;;;;;;47.57;19.97;;;;;;;-5.10;100.00;100873.86;1740675;82;21552;-76
2022/02/14 03:29:32;;;;;;;46.30;19.50;;;;;;;-5.11;100.00;100866.41;1740816;82;20990;-74
2022/02/14 03:31:59;;;;;;;43.77;19.50;;;;;;;-5.12;100.00;100879.18;1741310;82;20993;-76
2022/02/14 03:34:26;;;;;;;53.17;22.33;;;;;;;-5.11;100.00;100868.20;1741363;82;21034;-75
2022/02/14 03:36:53;;;;;;;50.23;22.83;;;;;;;-5.15;100.00;100860.38;1741696;82;21037;-76
2022/02/14 03:39:20;;;;;;;47.80;23.23;;;;;;;-5.17;100.00;100858.26;1741713;82;21044;-75
2022/02/14 03:41:47;;;;;;;47.60;22.53;;;;;;;-5.20;100.00;100856.17;1741683;82;21030;-76
2022/02/14 03:44:13;;;;;;;58.53;25.83;;;;;;;-5.22;100.00;100854.05;1741318;82;20998;-76
2022/02/14 03:46:40;;;;;;;50.93;25.33;;;;;;;-5.23;100.00;100849.68;1741153;82;21038;-75
2022/02/14 03:49:07;;;;;;;64.40;30.43;;;;;;;-5.23;100.00;100852.31;1740890;82;21057;-75
2022/02/14 03:51:35;;;;;;;60.43;30.47;;;;;;;-5.25;100.00;100848.88;1740977;82;21081;-75
2022/02/14 03:54:02;;;;;;;64.40;29.03;;;;;;;-5.27;100.00;100850.23;1740986;82;21048;-73
2022/02/14 03:56:29;;;;;;;57.73;26.83;;;;;;;-5.29;100.00;100841.95;1740758;82;20998;-75
2022/02/14 03:58:56;;;;;;;66.60;29.27;;;;;;;-5.33;100.00;100842.52;1741014;82;21066;-75
2022/02/14 04:01:23;;;;;;;74.07;32.57;;;;;;;-5.36;100.00;100847.45;1740709;82;21049;-75
2022/02/14 04:03:49;;;;;;;73.43;33.33;;;;;;;-5.36;100.00;100843.95;1740880;82;21034;-75
2022/02/14 04:06:16;;;;;;;69.40;33.70;;;;;;;-5.35;100.00;100840.39;1741146;82;21005;-75
2022/02/14 04:08:43;;;;;;;60.40;32.93;;;;;;;-5.31;100.00;100844.67;1740874;82;21033;-76
2022/02/14 04:11:11;;;;;;;59.30;30.70;;;;;;;-5.29;100.00;100839.31;1758842;81;21003;-75
2022/02/14 04:13:38;;;;;;;54.70;28.67;;;;;;;-5.30;100.00;100841.56;1668836;86;21508;-75
2022/02/14 04:16:05;;;;;;;55.03;28.30;;;;;;;-5.33;100.00;100835.92;1668726;86;20999;-74
2022/02/14 04:18:32;;;;;;;46.97;24.37;;;;;;;-5.37;100.00;100832.52;1669125;86;21066;-75
2022/02/14 04:20:59;;;;;;;42.50;21.83;;;;;;;-5.39;100.00;100836.14;1669063;86;20987;-75
2022/02/14 04:23:26;;;;;;;48.30;24.53;;;;;;;-5.42;100.00;100844.14;1669104;86;21018;-75
2022/02/14 04:25:52;;;;;;;43.17;23.37;;;;;;;-5.42;100.00;100844.14;1668877;86;21027;-76
2022/02/14 04:28:20;;;;;;;39.13;19.53;;;;;;;-5.39;100.00;100836.14;1669148;86;21031;-75
2022/02/14 04:30:47;;;;;;;40.80;20.50;;;;;;;-5.36;100.00;100834.27;1669071;86;21152;-74
2022/02/14 04:33:20;;;;;;;40.63;20.60;;;;;;;-5.32;100.00;100831.07;1669465;86;21002;-75
2022/02/14 04:35:47;;;;;;;40.17;20.00;;;;;;;-5.29;100.00;100826.14;1668950;86;21018;-77
2022/02/14 04:38:14;;;;;;;36.90;18.63;;;;;;;-5.28;100.00;100816.02;1669194;86;21090;-75
2022/02/14 04:40:41;;;;;;;38.20;17.70;;;;;;;-5.32;100.00;100812.62;1668941;86;21105;-76
2022/02/14 04:43:08;;;;;;;48.00;19.67;;;;;;;-5.32;100.00;100807.34;1669101;86;21553;-75
2022/02/14 04:45:36;;;;;;;89.53;22.40;;;;;;;-5.35;100.00;100793.82;1669041;85;21086;-76
2022/02/14 04:48:04;;;;;;;38.47;20.30;;;;;;;-5.34;100.00;100790.25;1646786;86;21015;-75
2022/02/14 04:50:31;;;;;;;38.47;20.07;;;;;;;-5.35;100.00;100788.98;1669248;86;21074;-75
2022/02/14 04:52:58;;;;;;;40.40;20.77;;;;;;;-5.35;100.00;100789.87;1669515;86;20978;-75
2022/02/14 04:55:25;;;;;;;41.47;21.90;;;;;;;-5.32;100.00;100793.31;1669417;86;21063;-75
2022/02/14 04:57:53;;;;;;;39.33;21.77;;;;;;;-5.30;100.00;100785.73;1669493;86;21003;-77
2022/02/14 05:00:20;;;;;;;38.60;21.97;;;;;;;-5.29;100.00;100786.59;1669424;85;21078;-75
2022/02/14 05:02:47;;;;;;;44.20;25.57;;;;;;;-5.27;100.00;100781.69;1669719;86;20999;-75
2022/02/14 05:05:14;;;;;;;43.67;24.50;;;;;;;-5.26;100.00;100775.52;1669893;86;21167;-77
2022/02/14 05:07:41;;;;;;;46.57;27.17;;;;;;;-5.23;100.00;100776.70;1670296;85;21065;-76
2022/02/14 05:10:09;;;;;;;51.33;30.10;;;;;;;-5.21;100.00;100772.23;1708461;81;21027;-76
2022/02/14 05:12:37;;;;;;;62.43;35.43;;;;;;;-5.20;100.00;100773.97;1764994;81;21504;-75
2022/02/14 05:15:05;;;;;;;65.07;35.63;;;;;;;-5.18;100.00;100779.20;1765387;81;21603;-76
2022/02/14 05:17:34;;;;;;;67.07;35.10;;;;;;;-5.17;100.00;100783.53;1764279;81;21572;-76
2022/02/14 05:20:03;;;;;;;49.87;28.23;;;;;;;-5.17;100.00;100780.47;1741955;81;21006;-77
2022/02/14 05:22:31;;;;;;;49.77;25.27;;;;;;;-5.16;100.00;100777.36;1740676;82;21077;-76
2022/02/14 05:24:58;;;;;;;45.87;25.57;;;;;;;-5.13;100.00;100758.80;1740824;82;20986;-77
2022/02/14 05:27:25;;;;;;;48.40;25.87;;;;;;;-5.07;100.00;100765.17;1741035;82;21511;-76
2022/02/14 05:29:51;;;;;;;48.40;27.37;;;;;;;-5.01;100.00;100743.87;1740928;82;21014;-77
2022/02/14 05:32:25;;;;;;;61.93;35.00;;;;;;;-4.98;100.00;100739.78;1740756;82;21460;-77
2022/02/14 05:34:52;;;;;;;57.33;33.27;;;;;;;-4.93;100.00;100732.18;1740573;82;21014;-76
2022/02/14 05:37:19;;;;;;;43.63;24.27;;;;;;;-4.88;100.00;100736.83;1740767;82;21041;-77
2022/02/14 05:39:47;;;;;;;48.10;25.27;;;;;;;-4.81;100.00;100729.09;1740697;82;21062;-77
2022/02/14 05:42:14;;;;;;;52.63;28.83;;;;;;;-4.72;100.00;100720.83;1740668;82;21056;-76
2022/02/14 05:44:42;;;;;;;57.47;30.03;;;;;;;-4.58;100.00;100716.36;1740639;82;21002;-77
2022/02/14 05:47:09;;;;;;;60.23;32.23;;;;;;;-4.33;100.00;100708.82;1740671;82;21085;-77
2022/02/14 05:49:36;;;;;;;53.73;30.80;;;;;;;-4.01;100.00;100693.00;1740497;82;21054;-76
2022/02/14 05:52:04;;;;;;;49.03;29.40;;;;;;;-3.70;100.00;100685.13;1740600;82;21017;-76
2022/02/14 05:54:31;;;;;;;52.47;29.93;;;;;;;-3.47;100.00;100667.84;1740627;82;21034;-77
2022/02/14 05:56:58;;;;;;;60.43;35.17;;;;;;;-3.29;100.00;100656.92;1740547;82;21527;-76
2022/02/14 05:59:25;;;;;;;50.83;29.60;;;;;;;-3.12;100.00;100665.88;1740556;82;21026;-76
2022/02/14 06:01:52;;;;;;;56.57;28.47;;;;;;;-3.00;100.00;100652.58;1740365;82;21077;-78
2022/02/14 06:04:18;;;;;;;61.10;32.00;;;;;;;-2.87;100.00;100648.42;1740523;82;21029;-75
2022/02/14 06:06:45;;;;;;;55.27;29.97;;;;;;;-2.74;100.00;100636.83;1740766;82;21081;-77
2022/02/14 06:09:13;;;;;;;48.63;24.07;;;;;;;-2.61;100.00;100637.11;1741807;82;21032;-78
2022/02/14 06:11:41;;;;;;;52.83;24.93;;;;;;;-2.49;100.00;100642.67;1760804;81;21011;-73
2022/02/14 06:14:07;;;;;;;52.00;25.13;;;;;;;-2.36;100.00;100634.98;1761123;81;21485;-77
2022/02/14 06:16:34;;;;;;;58.13;29.73;;;;;;;-2.21;100.00;100625.45;1760826;81;21063;-75
2022/02/14 06:19:03;;;;;;;64.13;33.63;;;;;;;-2.06;100.00;100625.62;1765372;81;21004;-77
2022/02/14 06:21:30;;;;;;;65.57;34.20;;;;;;;-1.94;100.00;100629.84;1769325;81;21521;-76
2022/02/14 06:23:58;;;;;;;61.37;30.93;;;;;;;-1.80;100.00;100629.63;1769268;81;21038;-76
2022/02/14 06:26:25;;;;;;;62.67;33.23;;;;;;;-1.67;100.00;100625.41;1740395;81;21026;-75
2022/02/14 06:28:53;;;;;;;49.47;28.97;;;;;;;-1.51;100.00;100633.42;1768988;81;21035;-75
2022/02/14 06:31:26;;;;;;;57.87;35.73;;;;;;;-1.38;100.00;100630.54;1769231;81;21016;-74
2022/02/14 06:33:53;;;;;;;56.13;28.38;;;;;;;-1.22;100.00;100631.04;1766074;81;21024;-72
2022/02/14 06:36:21;;;;;;;56.10;29.83;;;;;;;-1.09;100.00;100629.47;1761071;81;21031;-72
2022/02/14 06:38:48;;;;;;;51.53;28.30;;;;;;;-0.93;100.00;100637.45;1760968;81;21013;-73
2022/02/14 06:41:24;;;;;;;64.93;34.17;;;;;;;-0.81;100.00;100643.91;1760856;81;21056;-73
2022/02/14 06:43:52;;;;;;;46.67;25.03;;;;;;;-0.67;100.00;100645.82;1761008;81;21051;-74
2022/02/14 06:46:21;;;;;;;46.37;25.87;;;;;;;-0.54;100.00;100653.48;1757267;81;21105;-71
2022/02/14 06:48:49;;;;;;;54.77;31.53;;;;;;;-0.43;100.00;100651.55;1755112;82;21006;-71
2022/02/14 06:51:18;;;;;;;45.13;24.87;;;;;;;-0.31;100.00;100665.97;1755695;82;21057;-72
2022/02/14 06:53:46;;;;;;;41.97;21.20;;;;;;;-0.20;100.00;100676.36;1756419;82;21024;-73
2022/02/14 06:56:13;;;;;;;49.00;23.93;;;;;;;-0.09;100.00;100685.53;1755852;82;21031;-73
2022/02/14 06:58:42;;;;;;;52.27;28.20;;;;;;;-0.02;100.00;100699.74;1756100;82;21030;-76
2022/02/14 07:01:08;;;;;;;47.87;29.03;;;;;;;0.13;100.00;100719.75;1753205;82;21033;-76
2022/02/14 07:03:37;;;;;;;53.97;23.83;;;;;;;0.24;100.00;100735.94;1740893;82;21037;-73
2022/02/14 07:06:06;;;;;;;42.93;22.83;;;;;;;0.36;100.00;100753.86;1740145;82;21073;-71
2022/02/14 07:08:33;;;;;;;38.87;20.37;;;;;;;0.47;100.00;100775.86;1673389;84;21048;-74
2022/02/14 07:11:00;;;;;;;41.13;23.37;;;;;;;0.60;100.00;100806.61;1676819;84;21067;-72
2022/02/14 07:13:27;;;;;;;33.90;17.97;;;;;;;0.73;100.00;100834.73;1699919;84;21043;-73
2022/02/14 07:15:54;;;;;;;42.53;21.50;;;;;;;0.87;100.00;100858.75;1701879;84;21126;-75
2022/02/14 07:18:25;;;;;;;39.50;20.70;;;;;;;0.96;100.00;100880.00;1694778;84;21076;-77
2022/02/14 07:20:53;;;;;;;32.20;16.80;;;;;;;1.11;100.00;100898.22;1673619;86;21063;-74
2022/02/14 07:23:21;;;;;;;30.07;15.53;;;;;;;1.21;100.00;100923.38;1650880;86;21062;-74
2022/02/14 07:25:48;;;;;;;35.53;16.20;;;;;;;1.32;100.00;100943.58;1681550;84;21035;-77
2022/02/14 07:28:17;;;;;;;33.17;16.03;;;;;;;1.48;100.00;100958.20;1699343;84;21059;-75
2022/02/14 07:30:45;;;;;;;36.63;17.47;;;;;;;1.66;100.00;100970.06;1699232;84;21146;-76
2022/02/14 07:33:12;;;;;;;28.60;14.03;;;;;;;1.82;100.00;100986.86;1661273;86;21074;-78
2022/02/14 07:35:41;;;;;;;27.67;14.50;;;;;;;1.88;100.00;101011.00;1637279;88;21613;-76
2022/02/14 07:38:08;;;;;;;24.07;12.60;;;;;;;1.87;100.00;101035.45;1661439;86;21101;-78
2022/02/14 07:40:37;;;;;;;29.27;15.30;;;;;;;1.88;100.00;101051.00;1661136;86;21044;-77
2022/02/14 07:43:04;;;;;;;28.27;14.53;;;;;;;1.83;100.00;101065.93;1661753;86;21683;-71
2022/02/14 07:45:31;;;;;;;31.70;16.67;;;;;;;1.90;100.00;101075.77;1662005;86;21044;-72
2022/02/14 07:48:00;;;;;;;35.23;17.93;;;;;;;2.01;100.00;101076.47;1661915;86;21009;-76
2022/02/14 07:50:27;;;;;;;40.90;19.77;;;;;;;2.12;100.00;101091.36;1661936;86;21036;-75
2022/02/14 07:52:54;;;;;;;39.90;18.10;;;;;;;2.19;100.00;101094.05;1661848;86;21115;-75
2022/02/14 07:55:21;;;;;;;31.83;17.60;;;;;;;2.37;100.00;101104.58;1662085;86;21044;-75
2022/02/14 07:57:49;;;;;;;32.87;17.53;;;;;;;2.61;100.00;101103.58;1662045;86;21096;-78
2022/02/14 08:00:17;;;;;;;31.43;17.43;;;;;;;2.85;100.00;101111.42;1661670;86;21103;-77
2022/02/14 08:02:45;;;;;;;35.93;18.43;;;;;;;3.11;100.00;101110.73;1636962;86;21101;-73
2022/02/14 08:05:12;;;;;;;35.50;16.67;;;;;;;3.25;100.00;101117.39;1637583;86;21047;-74
2022/02/14 08:07:40;;;;;;;37.00;15.53;;;;;;;3.47;100.00;101128.93;1672016;86;21068;-73
2022/02/14 08:10:09;;;;;;;28.77;14.00;;;;;;;3.66;100.00;101125.90;1689043;83;21513;-72
2022/02/14 08:12:37;;;;;;;43.03;16.80;;;;;;;3.89;100.00;101134.24;1757217;81;21004;-74
2022/02/14 08:15:06;;;;;;;30.83;15.77;;;;;;;4.16;100.00;101137.77;1740325;81;20982;-71
2022/02/14 08:17:35;;;;;;;28.40;14.43;;;;;;;4.44;100.00;101135.88;1753578;81;21112;-71
2022/02/14 08:20:02;;;;;;;41.73;20.33;;;;;;;4.69;100.00;101143.13;1751311;81;21014;-72
2022/02/14 08:22:29;;;;;;;27.37;15.53;;;;;;;4.86;100.00;101154.48;1759674;81;20977;-72
2022/02/14 08:24:56;;;;;;;23.10;12.50;;;;;;;4.94;100.00;101166.88;1731021;83;21034;-72
2022/02/14 08:27:26;;;;;;;24.83;11.50;;;;;;;4.94;100.00;101178.45;1740747;81;21069;-73
2022/02/14 08:29:56;;;;;;;19.07;9.90;;;;;;;4.88;100.00;101204.81;1761086;81;21038;-74
2022/02/14 08:32:23;;;;;;;25.27;13.33;;;;;;;4.91;100.00;101213.98;1746957;81;21496;-74
2022/02/14 08:34:50;;;;;;;30.13;12.87;;;;;;;4.76;100.00;101222.58;1747883;81;21049;-76
2022/02/14 08:37:24;;;;;;;31.85;15.03;;;;;;;4.92;100.00;101225.06;1731185;82;21000;-75
2022/02/14 08:39:51;;;;;;;24.87;11.23;;;;;;;5.17;100.00;101225.59;1734431;82;21018;-73
2022/02/14 08:42:18;;;;;;;24.23;11.07;;;;;;;5.35;100.00;101225.23;1733515;82;21006;-74
2022/02/14 08:44:45;;;;;;;23.07;12.00;;;;;;;5.32;100.00;101235.22;1733164;82;21046;-73
2022/02/14 08:47:14;;;;;;;26.47;12.80;;;;;;;5.38;100.00;101237.09;1740990;81;21025;-72
2022/02/14 08:49:41;;;;;;;24.63;11.27;;;;;;;5.38;100.00;101240.63;1732242;82;21022;-74
2022/02/14 08:52:07;;;;;;;25.87;13.60;;;;;;;5.51;100.00;101235.28;1741977;81;21085;-68
2022/02/14 08:54:35;;;;;;;32.50;18.33;;;;;;;5.70;100.00;101234.80;1739460;81;21049;-72
2022/02/14 08:57:02;;;;;;;26.93;14.00;;;;;;;5.87;100.00;101233.09;1738652;81;20978;-72
2022/02/14 08:59:29;;;;;;;25.67;11.40;;;;;;;6.11;100.00;101232.78;1733335;81;21013;-70
2022/02/14 09:01:56;;;;;;;25.60;12.30;;;;;;;6.25;100.00;101236.19;1732646;82;21108;-71
2022/02/14 09:04:23;;;;;;;26.77;14.63;;;;;;;6.25;100.00;101251.42;1747904;81;21021;-72
2022/02/14 09:06:50;;;;;;;26.73;14.10;;;;;;;6.18;100.00;101265.81;1744616;81;20971;-71
2022/02/14 09:09:20;;;;;;;28.80;16.00;;;;;;;6.06;100.00;101262.68;1737530;81;21010;-72
2022/02/14 09:11:48;;;;;;;32.00;21.17;;;;;;;6.00;100.00;101268.02;1741551;81;21125;-69
2022/02/14 09:14:14;;;;;;;27.90;16.07;;;;;;;6.09;100.00;101259.75;1740614;81;21053;-71
2022/02/14 09:16:42;;;;;;;31.77;18.43;;;;;;;5.98;100.00;101268.59;1733181;81;21030;-70
2022/02/14 09:19:10;;;;;;;36.07;21.67;;;;;;;5.82;100.00;101266.61;1753317;81;21471;-66
2022/02/14 09:21:38;;;;;;;30.70;20.03;;;;;;;5.65;100.00;101272.72;1744372;81;21038;-71
2022/02/14 09:24:05;;;;;;;18.80;9.60;;;;;;;5.50;100.00;101267.08;1754958;81;21046;-72
2022/02/14 09:26:32;;;;;;;27.53;13.67;;;;;;;5.39;100.00;101264.31;1767236;81;21457;-73
2022/02/14 09:28:59;;;;;;;26.57;12.33;;;;;;;5.48;100.00;101260.48;1748607;81;21575;-73
2022/02/14 09:31:25;;;;;;;34.53;23.50;;;;;;;5.67;100.00;101252.48;1759150;81;21053;-70
2022/02/14 09:33:52;;;;;;;20.20;10.53;;;;;;;5.78;100.00;101247.69;1745849;81;20972;-70
2022/02/14 09:36:19;;;;;;;15.90;7.13;;;;;;;5.86;100.00;101248.84;1749724;81;21057;-71
2022/02/14 09:38:48;;;;;;;17.93;9.80;;;;;;;5.98;100.00;101237.71;1749792;81;21014;-70
2022/02/14 09:41:16;;;;;;;20.40;7.90;;;;;;;6.14;100.00;101232.56;1733786;81;21085;-70
2022/02/14 09:43:44;;;;;;;13.03;6.10;;;;;;;6.21;100.00;101233.33;1751942;81;20997;-70
2022/02/14 09:46:12;;;;;;;16.23;6.60;;;;;;;6.31;100.00;101231.33;1744147;81;21037;-76
2022/02/14 09:48:41;;;;;;;14.53;5.93;;;;;;;6.24;100.00;101231.77;1759866;81;21044;-74
2022/02/14 09:51:09;;;;;;;16.83;7.83;;;;;;;6.19;100.00;101229.91;1736718;81;21026;-77
2022/02/14 09:53:36;;;;;;;24.13;13.43;;;;;;;6.38;100.00;101217.31;1737972;81;21025;-74
2022/02/14 09:56:06;;;;;;;12.87;5.67;;;;;;;6.52;100.00;101218.97;1732144;82;21803;-75
2022/02/14 09:58:33;;;;;;;14.10;5.90;;;;;;;6.30;100.00;101221.55;1699939;83;21073;-70
2022/02/14 10:01:00;;;;;;;50.70;26.47;;;;;;;6.35;100.00;101210.82;1736750;81;20997;-73
2022/02/14 10:03:27;;;;;;;33.77;20.20;;;;;;;6.62;100.00;101201.64;1744231;81;21085;-72
2022/02/14 10:05:57;;;;;;;17.60;8.60;;;;;;;6.66;100.00;101212.55;1701086;84;21076;-75
2022/02/14 10:08:30;;;;;;;47.73;20.03;;;;;;;6.68;100.00;101208.41;1620310;87;21192;-71
2022/02/14 10:11:21;;;;;;;21.05;10.40;;;;;;;6.88;100.00;101191.58;1628845;87;21561;-68
2022/02/14 10:13:51;;;;;;;16.33;7.73;;;;;;;6.84;100.00;101198.18;1671750;85;21010;-69
2022/02/14 10:16:16;;;;;;;19.90;10.27;;;;;;;6.67;100.00;101195.92;1678720;85;21086;-69
2022/02/14 10:18:43;;;;;;;14.67;5.73;;;;;;;6.79;100.00;101187.77;1664988;85;21044;-71
2022/02/14 10:21:28;;;;;;;20.07;6.93;;;;;;;6.98;100.00;101193.08;1645719;87;21024;-70
2022/02/14 10:24:13;;;;;;;15.90;6.17;;;;;;;7.13;100.00;101188.32;1669621;85;21029;-68
2022/02/14 10:26:45;;;;;;;9.83;5.27;;;;;;;7.11;100.00;101195.16;1673456;85;21546;-71
2022/02/14 10:29:25;;;;;;;13.22;6.05;;;;;;;6.90;100.00;101194.16;1656269;85;21006;-74
2022/02/14 10:31:58;;;;;;;13.73;6.37;;;;;;;6.63;100.00;101191.27;1645590;87;21064;-70
2022/02/14 10:34:40;;;;;;;20.17;8.83;;;;;;;6.60;100.00;101179.41;1650676;85;21522;-71
2022/02/14 10:37:10;;;;;;;20.73;9.47;;;;;;;6.79;100.00;101170.79;1662817;85;21129;-74
2022/02/14 10:39:37;;;;;;;19.43;9.97;;;;;;;6.80;100.00;101180.09;1650303;87;21732;-70
2022/02/14 10:42:23;;;;;;;16.37;7.93;;;;;;;6.85;100.00;101181.05;1656931;85;21102;-72
2022/02/14 10:45:08;;;;;;;35.43;11.27;;;;;;;6.91;100.00;101176.56;1640306;85;21335;-70
2022/02/14 10:47:38;;;;;;;14.60;7.57;;;;;;;7.07;100.00;101176.22;1662718;85;21019;-70
2022/02/14 10:50:15;;;;;;;16.10;9.23;;;;;;;7.12;100.00;101178.06;1651367;85;21006;-73
2022/02/14 10:52:55;;;;;;;16.77;7.90;;;;;;;7.10;100.00;101177.33;1614182;88;21186;-71
2022/02/14 10:55:26;;;;;;;17.30;8.73;;;;;;;7.07;100.00;101177.56;1613856;89;21032;-72
2022/02/14 10:57:55;;;;;;;25.30;15.43;;;;;;;7.08;100.00;101173.03;1614105;89;21132;-73
2022/02/14 11:00:27;;;;;;;10.53;5.83;;;;;;;7.12;100.00;101167.77;1634187;88;21039;-72
2022/02/14 11:03:01;;;;;;;12.20;5.37;;;;;;;7.18;100.00;101174.87;1634270;86;21139;-75
2022/02/14 11:05:28;;;;;;;17.23;5.17;;;;;;;7.22;100.00;101184.43;1623276;88;21054;-73
2022/02/14 11:07:56;;;;;;;14.10;5.03;;;;;;;7.16;100.00;101182.70;1614360;89;21060;-71